Estación Meteorológica Peña el Pijo (Robertgarden) [ 11/12/18 20:34:08 CET ]

Fecha Hora Presion(HPa) Temp (°C) Humedad % Rocio (°C) Viento ( m/s) Direccion Lluvia 1Hora(mm) Lluvia 24H(mm) LLuvia Total(mm)
2018-Mar-19 01:01:39 1000.600 3.1 85 0.8       6.73 170.42
2018-Mar-19 02:03:35 1000.700 2.8 86 0.7       6.21 170.42
2018-Mar-19 03:01:58 1000.200 3.0 86 0.9       6.21 170.42
2018-Mar-19 04:01:49 999.700 3.6 83 1.0     0.51 6.21 170.94
2018-Mar-19 05:01:50 999.600 3.9 81 1.0       6.21 170.94
2018-Mar-19 06:01:54 999.900 4.1 78 0.6 2.1 NW   6.21 170.94
2018-Mar-19 07:01:41 1000.000 3.6 75 -0.4 0.5 NW   6.21 170.94
2018-Mar-19 08:01:33 999.900 3.3 75 -0.7       5.69 170.94
2018-Mar-19 09:01:52 999.500 4.6 73 0.2 0.4 NW   4.66 170.94
2018-Mar-19 10:01:44 999.800 7.2 64 0.8       3.10 170.94
2018-Mar-19 11:01:43 999.800 9.4 58 1.5       3.10 170.94
2018-Mar-19 12:01:48 999.900 9.4 59 1.8 2.0 NNW   3.10 170.94
2018-Mar-19 13:01:56 998.700 9.8 60 2.4       3.10 170.94
2018-Mar-19 14:01:47 998.300 9.0 61 1.9 1.9 NNW   3.10 170.94
2018-Mar-19 15:01:44 996.900 8.9 65 2.6 2.0 NNW   3.10 170.94
2018-Mar-19 16:01:59 995.800 10.1 64 3.6 4.5 NW   3.10 170.94
2018-Mar-19 17:01:40 994.900 8.5 68 2.9 2.0 WNW   3.10 170.94
2018-Mar-19 18:01:46 993.500 6.4 78 2.8       3.10 170.94
2018-Mar-19 19:01:13 994.400 5.9 82 3.0     3.10 62.21 174.04
2018-Mar-19 20:01:46 994.300 6.9 81 3.9 4.4 NW 1.03 7.25 175.08
2018-Mar-19 21:01:55 996.000 4.2 78 0.7       5.18 175.08
2018-Mar-19 22:01:50 997.000 4.2 78 0.7       4.66 175.08
2018-Mar-19 23:01:55 998.100 2.5 74 -1.7 3.6 N   4.66 175.08

Temperatura Máxima:10°    Temperatura Mínima:
Presión Máxima:1000.700 Hpa    Presión Mínima:993.500 Hpa


Volver